Terminal Aerodrome Forecast
Issued by NWS

Home | Current Version | Previous Version | Text Only | Print | Product List | Glossary On
Versions: 1 2 3 4 5 6 7 8 9 10 11 12 13 14 15 16 17 18 19 20 21
000
FTUS42 KTAE 020529
TAFABY
TAF
KABY 020529Z 0206/0306 33004KT P6SM SCT020
     FM021000 04004KT 4SM BR BKN005
     FM021300 04004KT P6SM BKN015
     FM021500 04010KT P6SM SCT050
     FM030000 04004KT P6SM FEW050=

USA.gov is the U.S. government's official web portal to all federal, state and local government web resources and services.